Aviation Digital Data Service (ADDS)

Output produced by METARs form (0421 UTC 19 August 2019)
found at http://www.aviationweather.gov/metar/data/
 
Forecast for: DTNH (ENFIDHA , TN)
Text: TAF DTNH 182300Z 1900/1924 14005KT CAVOK
Forecast period: 0000 to 1000 UTC 19 August 2019
Forecast type: FROM: standard forecast or significant change
Winds: from the SE (140 degrees) at 6 MPH (5 knots; 2.6 m/s)
Visibility: 6 or more miles 10+ km)
Ceiling: unknown
Clouds: missing
Weather: NSW  (no significant weather)
Text: BECMG 1910/1912 10015KT
Forecast period: 1000 to 1800 UTC 19 August 2019
Forecast type: BECOMING: Conditions expected to become as follows by 1200 UTC 19 August 2019
Winds: from the E (100 degrees) at 17 MPH (15 knots; 7.7 m/s)
Visibility: 6 or more miles 10+ km)
Ceiling: unknown
Clouds: missing
Weather: NSW  (no significant weather)
Text: BECMG 1918/1920 12006KT
Forecast period: 1800 UTC 19 August 2019 to 0000 UTC 20 August 2019
Forecast type: BECOMING: Conditions expected to become as follows by 2000 UTC 19 August 2019
Winds: from the ESE (120 degrees) at 7 MPH (6 knots; 3.1 m/s)
Visibility: 6 or more miles 10+ km)
Ceiling: unknown
Clouds: missing
Weather: NSW  (no significant weather)